BAW8DS EGKK-EGCC
Flight info
| Callsign | BAW8DS |
|---|---|
| Flight time | 0h 43m |
| Altitude | 24000 |
| Route | LAM N57 WELIN DCT TIMPO DCT ELVOS DCT TNT |
| Aircraft | A321/M-SDE3FGHIRWY/LB1 |
Departure
| Time | 2026-05-07 20:11 |
|---|---|
| Airport | London Gatwick Airport (EGKK) |
Arrival
| Time | 2026-05-07 20:54 |
|---|---|
| Airport | Manchester Airport (EGCC) |
| Time | Latitude | Longitude | Altitude | Speed | Heading |
|---|---|---|---|---|---|
| 2026-05-07 19:16 | 51.15603 | -0.16783 | 215 ft | 0 kts | 167° |
| 2026-05-07 19:47 | 51.15605 | -0.16784 | 205 ft | 2 kts | 167° |
| 2026-05-07 19:48 | 51.15630 | -0.16792 | 214 ft | 4 kts | 167° |
| 2026-05-07 19:48 | 51.15651 | -0.16800 | 211 ft | 4 kts | 174° |
| 2026-05-07 19:48 | 51.15673 | -0.16793 | 210 ft | 4 kts | 231° |
| 2026-05-07 19:48 | 51.15683 | -0.16757 | 211 ft | 3 kts | 258° |
| 2026-05-07 19:49 | 51.15689 | -0.16716 | 213 ft | 3 kts | 258° |
| 2026-05-07 19:49 | 51.15690 | -0.16709 | 214 ft | 0 kts | 257° |
| 2026-05-07 19:50 | 51.15690 | -0.16710 | 214 ft | 1 kts | 257° |
| 2026-05-07 19:51 | 51.15688 | -0.16726 | 213 ft | 3 kts | 257° |
| 2026-05-07 19:51 | 51.15682 | -0.16764 | 212 ft | 5 kts | 257° |
| 2026-05-07 19:51 | 51.15669 | -0.16858 | 207 ft | 13 kts | 257° |
| 2026-05-07 19:51 | 51.15647 | -0.17018 | 211 ft | 15 kts | 257° |
| 2026-05-07 19:52 | 51.15624 | -0.17178 | 209 ft | 0 kts | 256° |
| 2026-05-07 19:52 | 51.15624 | -0.17181 | 208 ft | 1 kts | 256° |
| 2026-05-07 19:52 | 51.15620 | -0.17208 | 209 ft | 5 kts | 256° |
| 2026-05-07 19:52 | 51.15604 | -0.17311 | 215 ft | 14 kts | 256° |
| 2026-05-07 19:53 | 51.15552 | -0.17470 | 215 ft | 18 kts | 227° |
| 2026-05-07 19:53 | 51.15519 | -0.17660 | 208 ft | 19 kts | 258° |
| 2026-05-07 19:53 | 51.15492 | -0.17869 | 205 ft | 18 kts | 258° |
| 2026-05-07 19:53 | 51.15463 | -0.18075 | 208 ft | 20 kts | 257° |
| 2026-05-07 19:54 | 51.15440 | -0.18236 | 209 ft | 12 kts | 252° |
| 2026-05-07 19:54 | 51.15371 | -0.18274 | 212 ft | 12 kts | 168° |
| 2026-05-07 19:54 | 51.15281 | -0.18243 | 208 ft | 14 kts | 168° |
| 2026-05-07 19:54 | 51.15199 | -0.18248 | 217 ft | 9 kts | 226° |
| 2026-05-07 19:55 | 51.15183 | -0.18356 | 208 ft | 11 kts | 258° |
| 2026-05-07 19:55 | 51.15165 | -0.18482 | 207 ft | 12 kts | 257° |
| 2026-05-07 19:55 | 51.15145 | -0.18626 | 205 ft | 14 kts | 258° |
| 2026-05-07 19:55 | 51.15123 | -0.18787 | 208 ft | 16 kts | 257° |
| 2026-05-07 19:56 | 51.15099 | -0.18964 | 213 ft | 17 kts | 258° |
| 2026-05-07 19:56 | 51.15073 | -0.19155 | 209 ft | 18 kts | 258° |
| 2026-05-07 19:56 | 51.15046 | -0.19360 | 208 ft | 20 kts | 258° |
| 2026-05-07 19:56 | 51.15015 | -0.19578 | 212 ft | 21 kts | 257° |
| 2026-05-07 19:57 | 51.14983 | -0.19811 | 214 ft | 22 kts | 257° |
| 2026-05-07 19:57 | 51.14948 | -0.20058 | 206 ft | 23 kts | 257° |
| 2026-05-07 19:57 | 51.14912 | -0.20315 | 213 ft | 24 kts | 257° |
| 2026-05-07 19:57 | 51.14876 | -0.20579 | 209 ft | 22 kts | 257° |
| 2026-05-07 19:58 | 51.14846 | -0.20798 | 207 ft | 21 kts | 257° |
| 2026-05-07 19:58 | 51.14814 | -0.21027 | 208 ft | 19 kts | 258° |
| 2026-05-07 19:58 | 51.14802 | -0.21122 | 208 ft | 8 kts | 257° |
| 2026-05-07 19:58 | 51.14774 | -0.21252 | 205 ft | 10 kts | 256° |
| 2026-05-07 19:59 | 51.14762 | -0.21334 | 205 ft | 0 kts | 257° |
| 2026-05-07 20:01 | 51.14761 | -0.21347 | 213 ft | 2 kts | 257° |
| 2026-05-07 20:01 | 51.14753 | -0.21378 | 213 ft | 4 kts | 240° |
| 2026-05-07 20:02 | 51.14736 | -0.21399 | 211 ft | 0 kts | 205° |
| 2026-05-07 20:07 | 51.14730 | -0.21401 | 211 ft | 4 kts | 191° |
| 2026-05-07 20:08 | 51.14672 | -0.21374 | 207 ft | 10 kts | 139° |
| 2026-05-07 20:08 | 51.14623 | -0.21332 | 210 ft | 2 kts | 165° |
| 2026-05-07 20:08 | 51.14618 | -0.21331 | 208 ft | 0 kts | 166° |
| 2026-05-07 20:09 | 51.14603 | -0.21325 | 211 ft | 9 kts | 166° |
| 2026-05-07 20:09 | 51.14527 | -0.21243 | 209 ft | 17 kts | 117° |
| 2026-05-07 20:10 | 51.14525 | -0.21146 | 206 ft | 0 kts | 79° |
| 2026-05-07 20:10 | 51.14526 | -0.21137 | 216 ft | 4 kts | 78° |
| 2026-05-07 20:10 | 51.14580 | -0.20745 | 209 ft | 75 kts | 78° |
| 2026-05-07 20:10 | 51.14744 | -0.19557 | 212 ft | 142 kts | 78° |
| 2026-05-07 20:11 | 51.14977 | -0.17888 | 738 ft | 151 kts | 78° |
| 2026-05-07 20:11 | 51.15207 | -0.16243 | 1503 ft | 153 kts | 79° |
| 2026-05-07 20:11 | 51.15461 | -0.14490 | 2057 ft | 172 kts | 79° |
| 2026-05-07 20:11 | 51.15724 | -0.12539 | 2584 ft | 189 kts | 79° |
| 2026-05-07 20:12 | 51.16017 | -0.10402 | 2982 ft | 208 kts | 79° |
| 2026-05-07 20:12 | 51.16339 | -0.08066 | 3209 ft | 231 kts | 76° |
| 2026-05-07 20:12 | 51.17088 | -0.05668 | 3621 ft | 252 kts | 53° |
| 2026-05-07 20:12 | 51.18181 | -0.03433 | 4379 ft | 258 kts | 53° |
| 2026-05-07 20:13 | 51.19289 | -0.01156 | 5191 ft | 262 kts | 53° |
| 2026-05-07 20:13 | 51.20412 | 0.01168 | 5880 ft | 267 kts | 53° |
| 2026-05-07 20:13 | 51.21556 | 0.03540 | 6590 ft | 274 kts | 53° |
| 2026-05-07 20:13 | 51.22726 | 0.05972 | 6818 ft | 277 kts | 53° |
| 2026-05-07 20:14 | 51.23902 | 0.08416 | 6875 ft | 278 kts | 53° |
| 2026-05-07 20:14 | 51.24890 | 0.11044 | 6869 ft | 277 kts | 68° |
| 2026-05-07 20:14 | 51.25388 | 0.14005 | 6858 ft | 277 kts | 80° |
| 2026-05-07 20:14 | 51.25736 | 0.17026 | 6843 ft | 277 kts | 80° |
| 2026-05-07 20:15 | 51.26091 | 0.20041 | 6830 ft | 276 kts | 80° |
| 2026-05-07 20:15 | 51.26448 | 0.23061 | 6818 ft | 277 kts | 80° |
| 2026-05-07 20:15 | 51.26712 | 0.26094 | 6803 ft | 276 kts | 92° |
| 2026-05-07 20:15 | 51.26306 | 0.29063 | 6793 ft | 275 kts | 109° |
| 2026-05-07 20:16 | 51.25651 | 0.31934 | 6775 ft | 275 kts | 111° |
| 2026-05-07 20:16 | 51.24976 | 0.34790 | 6763 ft | 275 kts | 111° |
| 2026-05-07 20:16 | 51.24299 | 0.37644 | 6764 ft | 275 kts | 111° |
| 2026-05-07 20:16 | 51.23621 | 0.40501 | 6771 ft | 276 kts | 111° |
| 2026-05-07 20:17 | 51.22944 | 0.43347 | 7399 ft | 279 kts | 111° |
| 2026-05-07 20:17 | 51.22243 | 0.46293 | 8208 ft | 282 kts | 111° |
| 2026-05-07 20:17 | 51.21555 | 0.49206 | 8975 ft | 286 kts | 111° |
| 2026-05-07 20:17 | 51.20859 | 0.52205 | 9722 ft | 291 kts | 111° |
| 2026-05-07 20:18 | 51.20146 | 0.55307 | 10117 ft | 308 kts | 111° |
| 2026-05-07 20:18 | 51.19714 | 0.58770 | 10273 ft | 333 kts | 90° |
| 2026-05-07 20:18 | 51.20170 | 0.62492 | 10473 ft | 353 kts | 67° |
| 2026-05-07 20:18 | 51.21532 | 0.65779 | 10980 ft | 361 kts | 45° |
| 2026-05-07 20:19 | 51.23584 | 0.68088 | 11609 ft | 364 kts | 23° |
| 2026-05-07 20:19 | 51.26033 | 0.69088 | 12232 ft | 366 kts | 2° |
| 2026-05-07 20:19 | 51.28569 | 0.68717 | 12852 ft | 368 kts | 343° |
| 2026-05-07 20:19 | 51.30910 | 0.67060 | 13473 ft | 369 kts | 324° |
| 2026-05-07 20:20 | 51.32840 | 0.64382 | 14024 ft | 371 kts | 314° |
| 2026-05-07 20:20 | 51.34683 | 0.61472 | 14759 ft | 373 kts | 313° |
| 2026-05-07 20:20 | 51.36527 | 0.58533 | 15337 ft | 376 kts | 313° |
| 2026-05-07 20:20 | 51.38384 | 0.55567 | 15920 ft | 378 kts | 313° |
| 2026-05-07 20:21 | 51.40256 | 0.52582 | 16510 ft | 381 kts | 313° |
| 2026-05-07 20:21 | 51.42140 | 0.49578 | 17098 ft | 383 kts | 313° |
| 2026-05-07 20:21 | 51.44040 | 0.46555 | 17682 ft | 386 kts | 313° |
| 2026-05-07 20:21 | 51.45953 | 0.43513 | 18235 ft | 389 kts | 313° |
| 2026-05-07 20:22 | 51.47881 | 0.40445 | 18723 ft | 391 kts | 313° |
| 2026-05-07 20:22 | 51.49818 | 0.37361 | 19189 ft | 394 kts | 313° |
| 2026-05-07 20:22 | 51.51766 | 0.34250 | 19665 ft | 396 kts | 313° |
| 2026-05-07 20:22 | 51.53725 | 0.31119 | 20143 ft | 399 kts | 313° |
| 2026-05-07 20:23 | 51.55698 | 0.27958 | 20611 ft | 401 kts | 313° |
| 2026-05-07 20:23 | 51.57677 | 0.24780 | 21080 ft | 404 kts | 313° |
| 2026-05-07 20:23 | 51.59665 | 0.21586 | 21636 ft | 402 kts | 313° |
| 2026-05-07 20:23 | 51.61631 | 0.18432 | 22380 ft | 398 kts | 313° |
| 2026-05-07 20:24 | 51.63564 | 0.15326 | 22917 ft | 399 kts | 313° |
| 2026-05-07 20:24 | 51.65561 | 0.12112 | 23392 ft | 401 kts | 313° |
| 2026-05-07 20:24 | 51.67538 | 0.08925 | 23822 ft | 404 kts | 312° |
| 2026-05-07 20:24 | 51.69527 | 0.05709 | 24032 ft | 405 kts | 312° |
| 2026-05-07 20:25 | 51.71515 | 0.02493 | 24077 ft | 405 kts | 312° |
| 2026-05-07 20:25 | 51.73501 | -0.00722 | 24066 ft | 405 kts | 312° |
| 2026-05-07 20:25 | 51.75491 | -0.03947 | 24061 ft | 406 kts | 312° |
| 2026-05-07 20:25 | 51.77481 | -0.07183 | 24055 ft | 406 kts | 312° |
| 2026-05-07 20:26 | 51.79468 | -0.10421 | 24057 ft | 406 kts | 312° |
| 2026-05-07 20:26 | 51.81455 | -0.13661 | 24074 ft | 406 kts | 312° |
| 2026-05-07 20:26 | 51.83415 | -0.16858 | 24083 ft | 405 kts | 312° |
| 2026-05-07 20:26 | 51.85422 | -0.20135 | 24083 ft | 405 kts | 312° |
| 2026-05-07 20:27 | 51.87403 | -0.23371 | 24081 ft | 405 kts | 312° |
| 2026-05-07 20:27 | 51.89358 | -0.26564 | 24082 ft | 405 kts | 312° |
| 2026-05-07 20:27 | 51.91336 | -0.29800 | 24083 ft | 405 kts | 312° |
| 2026-05-07 20:27 | 51.93314 | -0.33048 | 24083 ft | 405 kts | 312° |
| 2026-05-07 20:28 | 51.95287 | -0.36296 | 24078 ft | 405 kts | 312° |
| 2026-05-07 20:28 | 51.97258 | -0.39546 | 24079 ft | 405 kts | 312° |
| 2026-05-07 20:28 | 51.99232 | -0.42804 | 24084 ft | 405 kts | 312° |
| 2026-05-07 20:28 | 52.01207 | -0.46065 | 24089 ft | 405 kts | 312° |
| 2026-05-07 20:29 | 52.03179 | -0.49321 | 24067 ft | 405 kts | 312° |
| 2026-05-07 20:29 | 52.05149 | -0.52581 | 24072 ft | 405 kts | 312° |
| 2026-05-07 20:29 | 52.07120 | -0.55847 | 24077 ft | 404 kts | 312° |
| 2026-05-07 20:29 | 52.09090 | -0.59113 | 24069 ft | 404 kts | 312° |
| 2026-05-07 20:30 | 52.11054 | -0.62381 | 24067 ft | 404 kts | 311° |
| 2026-05-07 20:30 | 52.13017 | -0.65651 | 24071 ft | 404 kts | 311° |
| 2026-05-07 20:30 | 52.14980 | -0.68924 | 24072 ft | 404 kts | 311° |
| 2026-05-07 20:30 | 52.16941 | -0.72198 | 24069 ft | 404 kts | 311° |
| 2026-05-07 20:31 | 52.18902 | -0.75467 | 24063 ft | 404 kts | 311° |
| 2026-05-07 20:31 | 52.20864 | -0.78748 | 24065 ft | 404 kts | 311° |
| 2026-05-07 20:31 | 52.22821 | -0.82027 | 24068 ft | 404 kts | 311° |
| 2026-05-07 20:31 | 52.24891 | -0.85128 | 24066 ft | 406 kts | 319° |
| 2026-05-07 20:32 | 52.27233 | -0.87723 | 24058 ft | 408 kts | 326° |
| 2026-05-07 20:32 | 52.29664 | -0.90119 | 24071 ft | 408 kts | 326° |
| 2026-05-07 20:32 | 52.32088 | -0.92519 | 24070 ft | 408 kts | 326° |
| 2026-05-07 20:32 | 52.34512 | -0.94933 | 24077 ft | 407 kts | 326° |
| 2026-05-07 20:33 | 52.36930 | -0.97352 | 24079 ft | 407 kts | 326° |
| 2026-05-07 20:33 | 52.39343 | -0.99773 | 24067 ft | 407 kts | 326° |
| 2026-05-07 20:33 | 52.41759 | -1.02199 | 24063 ft | 407 kts | 326° |
| 2026-05-07 20:33 | 52.44177 | -1.04623 | 24041 ft | 408 kts | 326° |
| 2026-05-07 20:34 | 52.46599 | -1.07044 | 24036 ft | 408 kts | 326° |
| 2026-05-07 20:34 | 52.49022 | -1.09472 | 23867 ft | 409 kts | 326° |
| 2026-05-07 20:34 | 52.51444 | -1.11900 | 23006 ft | 406 kts | 326° |
| 2026-05-07 20:34 | 52.53835 | -1.14301 | 22470 ft | 400 kts | 326° |
| 2026-05-07 20:35 | 52.56187 | -1.16668 | 22107 ft | 390 kts | 326° |
| 2026-05-07 20:35 | 52.58474 | -1.18969 | 21690 ft | 382 kts | 326° |
| 2026-05-07 20:35 | 52.60728 | -1.21245 | 21231 ft | 377 kts | 326° |
| 2026-05-07 20:35 | 52.62912 | -1.23454 | 21074 ft | 357 kts | 326° |
| 2026-05-07 20:36 | 52.64970 | -1.25534 | 20519 ft | 341 kts | 326° |
| 2026-05-07 20:36 | 52.66954 | -1.27552 | 20063 ft | 338 kts | 326° |
| 2026-05-07 20:36 | 52.68942 | -1.29577 | 19650 ft | 335 kts | 326° |
| 2026-05-07 20:36 | 52.70915 | -1.31587 | 19218 ft | 333 kts | 326° |
| 2026-05-07 20:37 | 52.72879 | -1.33588 | 18780 ft | 331 kts | 326° |
| 2026-05-07 20:37 | 52.74728 | -1.35468 | 18558 ft | 324 kts | 326° |
| 2026-05-07 20:37 | 52.76612 | -1.37381 | 18451 ft | 312 kts | 326° |
| 2026-05-07 20:37 | 52.78428 | -1.39230 | 18319 ft | 301 kts | 326° |
| 2026-05-07 20:38 | 52.80186 | -1.41026 | 18069 ft | 294 kts | 326° |
| 2026-05-07 20:38 | 52.81915 | -1.42799 | 17717 ft | 292 kts | 326° |
| 2026-05-07 20:38 | 52.83636 | -1.44563 | 17344 ft | 290 kts | 326° |
| 2026-05-07 20:38 | 52.85346 | -1.46318 | 16975 ft | 288 kts | 325° |
| 2026-05-07 20:39 | 52.87047 | -1.48064 | 16611 ft | 287 kts | 325° |
| 2026-05-07 20:39 | 52.88739 | -1.49800 | 16248 ft | 286 kts | 325° |
| 2026-05-07 20:39 | 52.90423 | -1.51530 | 15901 ft | 284 kts | 325° |
| 2026-05-07 20:39 | 52.92135 | -1.53160 | 15620 ft | 283 kts | 329° |
| 2026-05-07 20:40 | 52.93903 | -1.54664 | 15085 ft | 291 kts | 330° |
| 2026-05-07 20:40 | 52.95709 | -1.56153 | 14737 ft | 287 kts | 331° |
| 2026-05-07 20:40 | 52.97483 | -1.57592 | 14505 ft | 281 kts | 331° |
| 2026-05-07 20:40 | 52.99236 | -1.59011 | 13991 ft | 282 kts | 331° |
| 2026-05-07 20:41 | 53.01040 | -1.60483 | 12772 ft | 296 kts | 331° |
| 2026-05-07 20:41 | 53.02928 | -1.62027 | 11566 ft | 307 kts | 331° |
| 2026-05-07 20:41 | 53.04795 | -1.63548 | 11208 ft | 286 kts | 331° |
| 2026-05-07 20:41 | 53.06516 | -1.64943 | 11044 ft | 266 kts | 330° |
| 2026-05-07 20:42 | 53.08157 | -1.66279 | 10765 ft | 260 kts | 330° |
| 2026-05-07 20:42 | 53.09766 | -1.67600 | 10592 ft | 257 kts | 330° |
| 2026-05-07 20:42 | 53.11365 | -1.68917 | 10474 ft | 256 kts | 330° |
| 2026-05-07 20:42 | 53.12960 | -1.70231 | 10359 ft | 256 kts | 330° |
| 2026-05-07 20:43 | 53.14546 | -1.71540 | 10246 ft | 253 kts | 330° |
| 2026-05-07 20:43 | 53.16091 | -1.72816 | 10076 ft | 241 kts | 330° |
| 2026-05-07 20:43 | 53.17543 | -1.74011 | 9753 ft | 230 kts | 329° |
| 2026-05-07 20:43 | 53.18965 | -1.75181 | 9515 ft | 228 kts | 329° |
| 2026-05-07 20:44 | 53.20385 | -1.76352 | 9153 ft | 227 kts | 330° |
| 2026-05-07 20:44 | 53.21798 | -1.77520 | 8772 ft | 226 kts | 330° |
| 2026-05-07 20:44 | 53.23205 | -1.78684 | 8401 ft | 226 kts | 330° |
| 2026-05-07 20:44 | 53.24609 | -1.79846 | 8029 ft | 225 kts | 329° |
| 2026-05-07 20:45 | 53.26011 | -1.81008 | 7650 ft | 225 kts | 330° |
| 2026-05-07 20:45 | 53.27411 | -1.82168 | 7276 ft | 224 kts | 330° |
| 2026-05-07 20:45 | 53.28807 | -1.83328 | 6892 ft | 224 kts | 330° |
| 2026-05-07 20:45 | 53.30204 | -1.84488 | 6523 ft | 224 kts | 330° |
| 2026-05-07 20:46 | 53.31596 | -1.85648 | 6117 ft | 223 kts | 330° |
| 2026-05-07 20:46 | 53.32986 | -1.86806 | 5733 ft | 223 kts | 330° |
| 2026-05-07 20:46 | 53.34359 | -1.87948 | 5475 ft | 215 kts | 330° |
| 2026-05-07 20:46 | 53.35638 | -1.89006 | 5383 ft | 194 kts | 330° |
| 2026-05-07 20:47 | 53.36784 | -1.89951 | 5196 ft | 176 kts | 330° |
| 2026-05-07 20:47 | 53.37852 | -1.90836 | 4909 ft | 172 kts | 330° |
| 2026-05-07 20:47 | 53.38922 | -1.91729 | 4540 ft | 172 kts | 330° |
| 2026-05-07 20:47 | 53.39994 | -1.92628 | 4220 ft | 172 kts | 330° |
| 2026-05-07 20:48 | 53.41067 | -1.93529 | 4058 ft | 173 kts | 330° |
| 2026-05-07 20:48 | 53.42146 | -1.94431 | 3951 ft | 173 kts | 330° |
| 2026-05-07 20:48 | 53.43225 | -1.95336 | 3871 ft | 174 kts | 330° |
| 2026-05-07 20:48 | 53.44304 | -1.96241 | 3774 ft | 173 kts | 330° |
| 2026-05-07 20:49 | 53.45370 | -1.97180 | 3694 ft | 172 kts | 322° |
| 2026-05-07 20:49 | 53.45981 | -1.98050 | 3643 ft | 169 kts | 307° |
| 2026-05-07 20:49 | 53.46597 | -1.99680 | 3568 ft | 163 kts | 286° |
| 2026-05-07 20:49 | 53.46832 | -2.01500 | 3521 ft | 157 kts | 266° |
| 2026-05-07 20:50 | 53.46704 | -2.03265 | 3510 ft | 153 kts | 248° |
| 2026-05-07 20:50 | 53.46252 | -2.04848 | 3411 ft | 149 kts | 230° |
| 2026-05-07 20:50 | 53.45611 | -2.06194 | 3262 ft | 147 kts | 227° |
| 2026-05-07 20:50 | 53.44972 | -2.07531 | 3071 ft | 147 kts | 228° |
| 2026-05-07 20:51 | 53.44334 | -2.08864 | 2866 ft | 146 kts | 228° |
| 2026-05-07 20:51 | 53.43697 | -2.10192 | 2699 ft | 146 kts | 228° |
| 2026-05-07 20:51 | 53.43063 | -2.11515 | 2501 ft | 145 kts | 227° |
| 2026-05-07 20:51 | 53.42432 | -2.12831 | 2307 ft | 145 kts | 227° |
| 2026-05-07 20:52 | 53.41800 | -2.14146 | 2114 ft | 145 kts | 228° |
| 2026-05-07 20:52 | 53.41168 | -2.15462 | 1913 ft | 145 kts | 227° |
| 2026-05-07 20:52 | 53.40539 | -2.16772 | 1723 ft | 144 kts | 227° |
| 2026-05-07 20:52 | 53.39908 | -2.18083 | 1510 ft | 145 kts | 227° |
| 2026-05-07 20:53 | 53.39274 | -2.19400 | 1315 ft | 146 kts | 227° |
| 2026-05-07 20:53 | 53.38637 | -2.20725 | 1108 ft | 147 kts | 227° |
| 2026-05-07 20:53 | 53.37984 | -2.22086 | 891 ft | 148 kts | 229° |
| 2026-05-07 20:53 | 53.37343 | -2.23400 | 682 ft | 145 kts | 229° |
| 2026-05-07 20:54 | 53.36703 | -2.24722 | 461 ft | 146 kts | 230° |
| 2026-05-07 20:54 | 53.36077 | -2.26039 | 260 ft | 141 kts | 230° |
| 2026-05-07 20:54 | 53.35527 | -2.27177 | 241 ft | 102 kts | 231° |
| 2026-05-07 20:54 | 53.35273 | -2.27710 | 251 ft | 15 kts | 244° |
| 2026-05-07 20:55 | 53.35271 | -2.27733 | 251 ft | 3 kts | 259° |
| 2026-05-07 20:55 | 53.35246 | -2.27965 | 252 ft | 31 kts | 260° |
| 2026-05-07 20:55 | 53.35230 | -2.28167 | 254 ft | 10 kts | 270° |
| 2026-05-07 20:55 | 53.35235 | -2.28192 | 254 ft | 0 kts | 296° |
| 2026-05-07 20:57 | 53.35236 | -2.28195 | 254 ft | 1 kts | 297° |
| 2026-05-07 20:57 | 53.35282 | -2.28220 | 254 ft | 15 kts | 12° |
| 2026-05-07 20:57 | 53.35353 | -2.28078 | 253 ft | 23 kts | 38° |
| 2026-05-07 20:57 | 53.35433 | -2.27957 | 252 ft | 16 kts | 37° |
| 2026-05-07 20:58 | 53.35543 | -2.27910 | 251 ft | 17 kts | 5° |
| 2026-05-07 20:58 | 53.35670 | -2.27887 | 251 ft | 19 kts | 6° |
| 2026-05-07 20:58 | 53.35810 | -2.27864 | 250 ft | 21 kts | 6° |
| 2026-05-07 20:58 | 53.35956 | -2.27839 | 249 ft | 22 kts | 6° |
| 2026-05-07 20:59 | 53.36080 | -2.27874 | 249 ft | 19 kts | 319° |
| 2026-05-07 20:59 | 53.36175 | -2.28031 | 250 ft | 20 kts | 315° |
| 2026-05-07 20:59 | 53.36275 | -2.28196 | 251 ft | 21 kts | 315° |
| 2026-05-07 20:59 | 53.36377 | -2.28372 | 252 ft | 19 kts | 314° |
| 2026-05-07 21:00 | 53.36474 | -2.28535 | 253 ft | 20 kts | 316° |
| 2026-05-07 21:00 | 53.36562 | -2.28686 | 253 ft | 12 kts | 308° |
| 2026-05-07 21:00 | 53.36620 | -2.28777 | 254 ft | 12 kts | 8° |
| 2026-05-07 21:00 | 53.36680 | -2.28696 | 253 ft | 2 kts | 43° |
| 2026-05-07 21:01 | 53.36698 | -2.28672 | 252 ft | 5 kts | 27° |
| 2026-05-07 21:01 | 53.36729 | -2.28693 | 252 ft | 6 kts | 320° |
| 2026-05-07 21:01 | 53.36763 | -2.28745 | 252 ft | 0 kts | 315° |